Time;durP1;ratioP1;P1;durP2;ratioP2;P2;SDS_P1;SDS_P2;PMS_P1;PMS_P2;Temp;Humidity;BMP_temperature;BMP_pressure;BME280_temperature;BME280_humidity;BME280_pressure;Samples;Min_cycle;Max_cycle;Signal;HPM_P1;HPM_P2
2021/06/08 00:00:26;;;;;;;0.82;0.80;;;;;;;13.34;70.09;101149.53;6284492;22;20007;-73
2021/06/08 00:02:52;;;;;;;2.20;0.90;;;;;;;13.28;70.73;101145.91;6280646;22;20100;-75
2021/06/08 00:05:19;;;;;;;0.77;0.77;;;;;;;13.22;70.36;101144.22;6308895;22;20014;-73
2021/06/08 00:07:45;;;;;;;0.30;0.30;;;;;;;13.19;70.26;101146.69;6310702;22;20006;-74
2021/06/08 00:10:11;;;;;;;0.93;0.93;;;;;;;13.15;70.78;101154.63;6280464;22;20007;-74
2021/06/08 00:12:37;;;;;;;1.38;0.80;;;;;;;13.08;70.77;101160.38;6311086;22;20075;-74
2021/06/08 00:15:04;;;;;;;0.57;0.57;;;;;;;13.03;71.11;101149.34;6286553;22;20014;-75
2021/06/08 00:17:30;;;;;;;0.60;0.60;;;;;;;12.99;70.38;101153.69;6276484;22;20329;-75
2021/06/08 00:19:56;;;;;;;0.85;0.85;;;;;;;12.95;70.61;101152.56;6275255;22;20011;-74
2021/06/08 00:22:21;;;;;;;1.92;0.77;;;;;;;12.89;71.20;101149.00;6281506;22;20011;-75
2021/06/08 00:24:47;;;;;;;1.13;0.65;;;;;;;12.85;71.23;101152.50;6230055;22;20093;-75
2021/06/08 00:27:13;;;;;;;0.80;0.80;;;;;;;12.76;71.61;101149.41;6307582;22;20384;-74
2021/06/08 00:29:38;;;;;;;0.98;0.88;;;;;;;12.76;71.62;101149.41;6311611;22;19999;-74
2021/06/08 00:32:04;;;;;;;0.55;0.50;;;;;;;12.68;71.60;101148.00;6304227;22;20000;-74
2021/06/08 00:34:29;;;;;;;0.80;0.80;;;;;;;12.67;71.88;101156.50;6285414;22;20003;-72
2021/06/08 00:36:55;;;;;;;2.00;0.80;;;;;;;12.62;71.45;101153.72;6308050;22;20042;-74
2021/06/08 00:39:20;;;;;;;1.02;1.02;;;;;;;12.57;71.65;101159.97;6280140;22;20023;-74
2021/06/08 00:41:46;;;;;;;2.97;1.10;;;;;;;12.50;71.69;101151.13;6308632;22;20003;-75
2021/06/08 00:44:14;;;;;;;1.27;1.10;;;;;;;12.44;72.29;101149.44;6281935;22;20007;-73
2021/06/08 00:46:41;;;;;;;0.98;0.98;;;;;;;12.41;72.27;101164.50;6307647;22;20027;-74
2021/06/08 00:49:06;;;;;;;1.50;1.00;;;;;;;12.33;72.08;101157.56;6312570;22;20414;-73
2021/06/08 00:51:32;;;;;;;3.50;1.15;;;;;;;12.25;72.53;101157.22;6284697;22;20118;-74
2021/06/08 00:53:59;;;;;;;0.80;0.80;;;;;;;12.23;72.66;101162.97;6277687;22;20417;-74
2021/06/08 00:56:25;;;;;;;1.70;1.20;;;;;;;12.18;72.75;101162.91;6311526;22;20011;-74
2021/06/08 00:58:50;;;;;;;2.05;1.30;;;;;;;12.16;73.11;101162.34;6281637;22;20322;-73
2021/06/08 01:01:16;;;;;;;0.95;0.95;;;;;;;12.12;73.04;101161.19;6259345;22;20149;-74
2021/06/08 01:03:41;;;;;;;2.75;1.75;;;;;;;12.14;73.37;101159.03;6304075;22;19999;-73
2021/06/08 01:06:07;;;;;;;1.15;1.05;;;;;;;12.18;73.48;101162.91;6310741;22;20007;-74
2021/06/08 01:08:32;;;;;;;1.27;1.15;;;;;;;12.24;73.26;101159.13;6276819;22;20426;-74
2021/06/08 01:10:58;;;;;;;8.48;1.65;;;;;;;12.27;72.99;101161.34;6279507;22;20007;-75
2021/06/08 01:13:26;;;;;;;1.38;1.05;;;;;;;12.27;73.06;101163.28;6311518;22;20011;-75
2021/06/08 01:15:52;;;;;;;2.35;1.20;;;;;;;12.23;73.05;101158.28;6309311;22;20007;-75
2021/06/08 01:18:17;;;;;;;1.60;1.23;;;;;;;12.25;72.75;101168.19;6282403;22;20029;-77
2021/06/08 01:20:43;;;;;;;1.60;1.15;;;;;;;12.23;72.87;101157.47;6283644;22;20045;-76
2021/06/08 01:23:09;;;;;;;3.03;1.73;;;;;;;12.23;72.76;101157.47;6311214;22;20003;-76
2021/06/08 01:25:34;;;;;;;1.23;1.13;;;;;;;12.22;72.46;101162.13;6310739;22;20395;-76
2021/06/08 01:28:01;;;;;;;1.13;0.98;;;;;;;12.24;72.60;101159.13;6309000;22;20010;-75
2021/06/08 01:30:28;;;;;;;1.00;0.90;;;;;;;12.22;72.69;101161.28;6283678;22;20118;-73
2021/06/08 01:32:55;;;;;;;2.95;1.35;;;;;;;12.28;72.34;101167.66;6307999;22;20082;-73
2021/06/08 01:35:21;;;;;;;0.80;0.80;;;;;;;12.31;72.71;101175.38;6310490;22;20021;-73
2021/06/08 01:38:02;;;;;;;0.63;0.63;;;;;;;12.31;71.95;101165.25;6270126;22;20081;-74
2021/06/08 01:40:31;;;;;;;0.98;0.73;;;;;;;12.37;72.49;101169.69;6255555;22;20007;-73
2021/06/08 01:42:56;;;;;;;0.70;0.70;;;;;;;12.45;71.92;101173.84;6312744;22;20003;-75
2021/06/08 01:45:22;;;;;;;0.43;0.40;;;;;;;12.53;72.33;101164.34;6309056;22;20018;-73
2021/06/08 01:47:47;;;;;;;2.67;0.55;;;;;;;12.58;71.76;101169.88;6310491;22;20007;-74
2021/06/08 01:50:13;;;;;;;1.13;0.88;;;;;;;12.58;71.65;101158.88;6282369;22;20014;-74
2021/06/08 01:52:49;;;;;;;1.35;0.80;;;;;;;12.60;71.67;101170.44;6284559;22;20009;-75
2021/06/08 01:55:31;;;;;;;2.75;0.70;;;;;;;12.60;71.09;101175.94;6308351;22;20060;-74
2021/06/08 01:58:08;;;;;;;0.68;0.65;;;;;;;12.54;71.08;101168.72;6304856;22;20014;-78
2021/06/08 02:00:43;;;;;;;4.43;0.50;;;;;;;12.50;71.45;101173.06;6306399;22;19999;-76
2021/06/08 02:03:23;;;;;;;0.60;0.50;;;;;;;12.43;71.16;101167.00;6279566;22;20333;-75
2021/06/08 02:06:23;;;;;;;0.80;0.80;;;;;;;12.33;70.98;101174.03;6282664;22;20002;-76
2021/06/08 02:09:34;;;;;;;0.65;0.65;;;;;;;12.22;71.12;101172.25;6310723;22;20000;-74
2021/06/08 02:12:10;;;;;;;0.47;0.47;;;;;;;12.01;71.06;101154.78;6190193;23;20028;-74
2021/06/08 02:14:48;;;;;;;0.45;0.30;;;;;;;12.04;71.11;101179.75;6212139;23;20000;-74
2021/06/08 02:17:23;;;;;;;0.30;0.30;;;;;;;12.00;71.19;101175.91;6249353;22;20039;-74
2021/06/08 02:19:51;;;;;;;0.50;0.50;;;;;;;11.96;71.34;101180.22;6281481;22;20120;-74
2021/06/08 02:22:22;;;;;;;0.40;0.40;;;;;;;11.95;71.44;101181.31;6306990;22;20006;-75
2021/06/08 02:24:48;;;;;;;0.20;0.20;;;;;;;11.94;71.02;101181.56;6310543;22;20495;-74
2021/06/08 02:27:17;;;;;;;0.50;0.50;;;;;;;12.01;71.30;101180.28;6309857;22;19999;-73
2021/06/08 02:29:47;;;;;;;0.40;0.35;;;;;;;12.07;71.58;101183.09;6302269;22;20011;-74
2021/06/08 02:32:15;;;;;;;1.77;0.70;;;;;;;12.12;71.10;101188.59;6281630;22;20006;-74
2021/06/08 02:34:43;;;;;;;2.00;1.02;;;;;;;12.15;71.20;101193.56;6307350;22;19995;-74
2021/06/08 02:37:10;;;;;;;0.70;0.70;;;;;;;12.20;71.07;101196.38;6278871;22;20026;-74
2021/06/08 02:39:38;;;;;;;1.35;0.75;;;;;;;12.20;70.63;101190.91;6307609;22;20007;-75
2021/06/08 02:42:06;;;;;;;4.97;0.75;;;;;;;12.20;70.51;101190.91;6308507;22;20069;-74
2021/06/08 02:44:31;;;;;;;1.20;1.10;;;;;;;12.15;70.82;101188.09;6310058;22;20007;-74
2021/06/08 02:46:58;;;;;;;0.98;0.52;;;;;;;12.09;70.14;101178.16;6310852;22;20014;-73
2021/06/08 02:49:24;;;;;;;1.30;1.08;;;;;;;12.01;70.69;101177.53;6280639;22;20120;-73
2021/06/08 02:51:50;;;;;;;1.00;0.40;;;;;;;11.93;70.26;101180.75;6310059;22;20003;-72
2021/06/08 02:54:17;;;;;;;0.70;0.70;;;;;;;11.84;70.69;101182.22;6305426;22;20007;-73
2021/06/08 02:56:43;;;;;;;3.15;0.98;;;;;;;11.76;70.48;101182.72;6310582;22;20547;-73
2021/06/08 02:59:10;;;;;;;1.50;0.88;;;;;;;11.66;70.55;101181.47;6278299;22;20003;-73
2021/06/08 03:01:45;;;;;;;0.85;0.70;;;;;;;11.57;70.68;101172.06;6282143;22;20117;-72
2021/06/08 03:04:15;;;;;;;0.90;0.90;;;;;;;11.49;70.45;101173.34;6308223;22;20080;-73
2021/06/08 03:06:48;;;;;;;0.70;0.70;;;;;;;11.41;70.59;101168.28;6284413;22;20026;-73
2021/06/08 03:09:16;;;;;;;0.60;0.60;;;;;;;11.37;70.63;101172.59;6310782;22;20314;-76
2021/06/08 03:11:51;;;;;;;1.42;1.25;;;;;;;11.30;70.83;101175.53;6284813;22;20082;-75
2021/06/08 03:14:20;;;;;;;0.63;0.63;;;;;;;11.25;70.79;101180.94;6311628;22;20025;-74
2021/06/08 03:16:51;;;;;;;1.15;0.40;;;;;;;11.21;70.96;101174.31;6284160;22;20000;-75
2021/06/08 03:19:20;;;;;;;0.22;0.22;;;;;;;11.15;70.79;101175.31;6284778;22;20311;-74
2021/06/08 03:21:49;;;;;;;0.30;0.22;;;;;;;11.12;71.12;101176.63;6311150;22;19999;-74
2021/06/08 03:24:17;;;;;;;1.77;0.50;;;;;;;11.07;71.03;101179.31;6284104;22;20444;-74
2021/06/08 03:26:45;;;;;;;0.70;0.52;;;;;;;11.08;71.15;101189.19;6311806;22;20029;-74
2021/06/08 03:29:14;;;;;;;0.73;0.57;;;;;;;11.10;70.89;101191.69;6311299;22;19999;-74
2021/06/08 03:31:42;;;;;;;0.50;0.50;;;;;;;11.11;71.02;101187.84;6312560;22;20025;-74
2021/06/08 03:34:14;;;;;;;0.40;0.40;;;;;;;11.11;71.26;101191.44;6282875;22;20180;-76
2021/06/08 03:36:51;;;;;;;0.75;0.40;;;;;;;11.09;70.76;101190.00;6286650;22;20023;-75
2021/06/08 03:39:19;;;;;;;0.65;0.28;;;;;;;11.11;70.83;101193.31;6280284;22;20099;-76
2021/06/08 03:41:46;;;;;;;0.45;0.45;;;;;;;11.15;70.89;101191.75;6313690;22;20066;-75
2021/06/08 03:44:14;;;;;;;0.20;0.20;;;;;;;11.18;70.82;101191.22;6281791;22;20003;-75
2021/06/08 03:46:40;;;;;;;0.68;0.40;;;;;;;11.13;70.67;101183.78;6285289;22;20478;-75
2021/06/08 03:49:05;;;;;;;0.65;0.40;;;;;;;11.14;70.68;101190.06;6280578;22;20087;-75
2021/06/08 03:51:32;;;;;;;0.63;0.30;;;;;;;11.11;70.66;101187.84;6307972;22;20003;-75
2021/06/08 03:53:59;;;;;;;0.17;0.17;;;;;;;11.03;70.36;101180.06;6307677;22;20006;-74
2021/06/08 03:56:25;;;;;;;0.45;0.40;;;;;;;11.08;70.56;101191.09;6311622;22;20058;-74
2021/06/08 03:58:54;;;;;;;0.73;0.40;;;;;;;11.07;70.97;101178.47;6314057;22;20003;-74
2021/06/08 04:01:21;;;;;;;1.95;0.70;;;;;;;11.12;71.00;101192.25;6282360;22;20082;-73
2021/06/08 04:03:48;;;;;;;0.40;0.40;;;;;;;11.13;70.60;101188.44;6278350;22;20003;-72
2021/06/08 04:06:19;;;;;;;0.20;0.20;;;;;;;11.21;70.90;101196.19;6283163;22;20019;-75
2021/06/08 04:08:45;;;;;;;0.47;0.47;;;;;;;11.25;70.58;101194.63;6326663;22;20006;-74
2021/06/08 04:11:11;;;;;;;0.60;0.60;;;;;;;11.27;70.58;101192.47;6296025;22;20007;-76
2021/06/08 04:13:40;;;;;;;2.90;1.00;;;;;;;11.28;70.86;101194.13;6325137;22;20014;-73
2021/06/08 04:16:07;;;;;;;4.55;0.80;;;;;;;11.29;70.69;101198.53;6291246;22;20666;-75
2021/06/08 04:18:33;;;;;;;1.77;0.73;;;;;;;11.32;70.52;101195.28;6311549;22;20460;-75
2021/06/08 04:20:59;;;;;;;2.78;0.88;;;;;;;11.32;70.64;101192.53;6283235;22;20021;-74
2021/06/08 04:23:27;;;;;;;0.50;0.50;;;;;;;11.38;70.73;101193.44;6288431;22;20003;-75
2021/06/08 04:25:53;;;;;;;0.47;0.43;;;;;;;11.42;70.45;101191.00;6315469;22;20003;-74
2021/06/08 04:28:20;;;;;;;0.20;0.20;;;;;;;11.45;70.12;101190.53;6311598;22;20003;-75
2021/06/08 04:30:47;;;;;;;0.20;0.20;;;;;;;11.48;70.02;101195.50;6282991;22;20003;-74
2021/06/08 04:33:13;;;;;;;0.20;0.20;;;;;;;11.54;70.38;101194.47;6312597;22;19999;-74
2021/06/08 04:35:39;;;;;;;0.10;0.10;;;;;;;11.60;70.04;101193.47;6285314;22;20019;-76
2021/06/08 04:38:06;;;;;;;0.22;0.20;;;;;;;11.74;69.54;101195.81;6285292;22;20007;-75
2021/06/08 04:40:32;;;;;;;0.10;0.10;;;;;;;11.83;69.82;101191.56;6310055;22;20003;-74
2021/06/08 04:42:57;;;;;;;0.55;0.55;;;;;;;11.92;69.65;101190.00;6312221;22;20053;-75
2021/06/08 04:45:23;;;;;;;0.43;0.32;;;;;;;11.99;69.09;101195.34;6273997;22;20006;-73
2021/06/08 04:47:48;;;;;;;0.50;0.40;;;;;;;12.05;69.33;101195.13;6309851;22;20003;-74
2021/06/08 04:50:15;;;;;;;0.52;0.43;;;;;;;12.15;69.10;101204.53;6310880;22;20037;-73
2021/06/08 04:52:41;;;;;;;0.30;0.30;;;;;;;12.21;68.51;101201.59;6278616;22;20512;-74
2021/06/08 04:55:09;;;;;;;0.43;0.40;;;;;;;12.26;68.52;101211.78;6311970;22;20338;-74
2021/06/08 04:57:34;;;;;;;0.70;0.70;;;;;;;12.23;68.26;101207.66;6305122;22;20804;-73
2021/06/08 05:00:07;;;;;;;0.40;0.40;;;;;;;12.25;68.08;101210.16;6285946;22;20719;-74
2021/06/08 05:02:39;;;;;;;1.25;0.57;;;;;;;12.26;68.05;101206.31;6277077;22;20321;-74
2021/06/08 05:05:09;;;;;;;0.57;0.43;;;;;;;12.31;68.04;101200.91;6311956;22;20461;-76
2021/06/08 05:07:40;;;;;;;0.43;0.30;;;;;;;12.35;67.73;101210.25;6306774;22;20131;-74
2021/06/08 05:10:10;;;;;;;0.30;0.30;;;;;;;12.36;68.04;101195.44;6311371;22;20022;-75
2021/06/08 05:12:40;;;;;;;2.42;0.38;;;;;;;12.37;68.08;101194.38;6309357;22;20509;-75
2021/06/08 05:15:07;;;;;;;0.40;0.40;;;;;;;12.40;67.84;101202.06;6308843;22;20398;-75
2021/06/08 05:17:33;;;;;;;0.45;0.40;;;;;;;12.43;68.24;101199.91;6280933;22;20372;-74
2021/06/08 05:20:00;;;;;;;0.40;0.40;;;;;;;12.37;68.20;101196.28;6308972;22;20056;-75
2021/06/08 05:22:26;;;;;;;0.75;0.40;;;;;;;12.36;68.15;101206.41;6310472;22;20497;-75
2021/06/08 05:24:53;;;;;;;0.20;0.20;;;;;;;12.40;67.96;101202.06;6281652;22;20014;-74
2021/06/08 05:27:20;;;;;;;0.20;0.20;;;;;;;12.48;67.77;101199.94;6312385;22;19999;-73
2021/06/08 05:29:46;;;;;;;0.20;0.20;;;;;;;12.51;67.75;101194.78;6308228;22;20033;-73
2021/06/08 05:32:13;;;;;;;0.22;0.22;;;;;;;12.60;67.39;101197.88;6284970;22;20008;-74
2021/06/08 05:34:43;;;;;;;0.22;0.22;;;;;;;12.65;67.45;101203.41;6279853;22;20453;-73
2021/06/08 05:37:13;;;;;;;1.42;0.38;;;;;;;12.73;67.21;101196.59;6311612;22;20034;-74
2021/06/08 05:39:40;;;;;;;0.43;0.43;;;;;;;12.76;67.06;101198.81;6311327;22;20409;-74
2021/06/08 05:42:08;;;;;;;1.27;0.50;;;;;;;12.79;66.32;101192.81;6281573;22;20015;-73
2021/06/08 05:44:37;;;;;;;0.80;0.80;;;;;;;12.84;66.67;101197.53;6308051;22;20000;-74
2021/06/08 05:47:04;;;;;;;0.28;0.28;;;;;;;12.90;66.18;101199.22;6284747;22;20394;-74
2021/06/08 05:49:31;;;;;;;0.68;0.57;;;;;;;12.98;66.35;101204.22;6310385;22;20011;-74
2021/06/08 05:51:59;;;;;;;0.55;0.43;;;;;;;13.03;66.36;101198.75;6312395;22;20307;-76
2021/06/08 05:54:27;;;;;;;0.80;0.40;;;;;;;13.10;66.49;101202.09;6260706;22;20013;-75
2021/06/08 05:56:53;;;;;;;0.73;0.60;;;;;;;13.20;65.07;101219.72;6282217;22;20505;-72
2021/06/08 05:59:19;;;;;;;0.30;0.30;;;;;;;13.26;64.96;101213.19;6301939;22;20007;-72
2021/06/08 06:01:44;;;;;;;1.10;0.80;;;;;;;13.33;65.88;101216.56;6307153;22;20462;-73
2021/06/08 06:04:16;;;;;;;1.52;0.77;;;;;;;13.36;65.91;101218.78;6309374;22;20014;-73
2021/06/08 06:06:43;;;;;;;0.40;0.40;;;;;;;13.44;65.59;101210.03;6308358;22;20053;-74
2021/06/08 06:09:11;;;;;;;0.95;0.70;;;;;;;13.49;65.70;101208.41;6307710;22;20010;-75
2021/06/08 06:11:41;;;;;;;0.70;0.70;;;;;;;13.48;66.03;101215.84;6308432;22;20074;-73
2021/06/08 06:14:08;;;;;;;0.50;0.50;;;;;;;13.52;65.93;101216.13;6276766;22;20026;-74
2021/06/08 06:16:39;;;;;;;0.57;0.57;;;;;;;13.58;65.38;101213.13;6228604;22;20011;-75
2021/06/08 06:19:06;;;;;;;1.65;0.55;;;;;;;13.65;66.04;101217.56;6283952;22;20008;-74
2021/06/08 06:21:32;;;;;;;1.15;0.80;;;;;;;13.70;65.89;101212.91;6307523;22;20003;-74
2021/06/08 06:24:00;;;;;;;0.50;0.50;;;;;;;13.76;66.01;101220.09;6283332;22;20010;-74
2021/06/08 06:26:35;;;;;;;2.28;0.80;;;;;;;13.82;65.95;101214.63;6280739;22;20007;-74
2021/06/08 06:29:01;;;;;;;1.33;0.80;;;;;;;13.85;65.88;101214.91;6283789;22;20426;-74
2021/06/08 06:31:30;;;;;;;1.15;0.68;;;;;;;13.92;65.41;101215.47;6309794;22;20079;-74
2021/06/08 06:33:57;;;;;;;0.32;0.32;;;;;;;13.96;65.67;101204.78;6282381;22;20006;-76
2021/06/08 06:36:26;;;;;;;2.22;0.40;;;;;;;14.16;65.22;101205.94;6309209;22;20023;-74
2021/06/08 06:38:52;;;;;;;0.98;0.57;;;;;;;14.30;64.99;101204.31;6284355;22;20029;-77
2021/06/08 06:41:20;;;;;;;1.35;0.70;;;;;;;14.34;64.65;101199.94;6283098;22;20382;-75
2021/06/08 06:43:50;;;;;;;1.33;0.80;;;;;;;14.47;64.59;101204.91;6279193;22;20008;-77
2021/06/08 06:46:17;;;;;;;7.60;0.70;;;;;;;14.59;65.20;101212.06;6283983;22;20333;-74
2021/06/08 06:48:50;;;;;;;1.35;0.70;;;;;;;14.59;64.39;101212.06;6308844;22;20014;-76
2021/06/08 06:51:16;;;;;;;1.05;0.95;;;;;;;14.75;64.82;101219.28;6308156;22;20009;-73
2021/06/08 06:53:42;;;;;;;0.43;0.40;;;;;;;14.89;64.53;101221.47;6305131;22;20244;-73
2021/06/08 06:56:07;;;;;;;1.45;0.47;;;;;;;15.00;64.46;101217.63;6312268;22;20011;-73
2021/06/08 06:58:34;;;;;;;0.88;0.70;;;;;;;15.03;64.23;101219.00;6286427;22;20007;-71
2021/06/08 07:01:01;;;;;;;0.70;0.70;;;;;;;15.09;64.05;101218.69;6285630;22;20046;-73
2021/06/08 07:03:30;;;;;;;0.82;0.75;;;;;;;15.12;64.21;101209.06;6280300;22;19999;-73
2021/06/08 07:05:59;;;;;;;1.58;0.77;;;;;;;15.30;63.82;101221.41;6309529;22;20072;-74
2021/06/08 07:08:27;;;;;;;1.02;0.93;;;;;;;15.33;63.31;101209.84;6281160;22;20003;-73
2021/06/08 07:10:53;;;;;;;1.75;0.85;;;;;;;15.43;63.38;101218.06;6306009;22;20007;-70
2021/06/08 07:13:20;;;;;;;1.00;0.60;;;;;;;15.50;62.96;101221.38;6309790;22;20084;-73
2021/06/08 07:15:48;;;;;;;0.90;0.45;;;;;;;15.66;63.38;101235.13;6311863;22;20010;-73
2021/06/08 07:18:13;;;;;;;1.05;0.70;;;;;;;15.82;63.27;101233.97;6302502;22;19999;-73
2021/06/08 07:20:39;;;;;;;0.95;0.88;;;;;;;15.94;62.16;101230.09;6255075;22;20333;-72
2021/06/08 07:23:06;;;;;;;0.98;0.63;;;;;;;16.10;62.07;101236.34;6306641;22;20023;-72
2021/06/08 07:25:39;;;;;;;1.42;0.80;;;;;;;16.21;61.65;101224.16;6308908;22;20047;-73
2021/06/08 07:28:06;;;;;;;1.10;0.73;;;;;;;16.45;61.77;101235.31;6308249;22;20381;-74
2021/06/08 07:30:33;;;;;;;3.63;0.80;;;;;;;16.58;60.94;101234.66;6302972;22;19999;-73
2021/06/08 07:33:11;;;;;;;0.55;0.55;;;;;;;16.72;60.95;101234.88;6309018;22;20013;-73
2021/06/08 07:35:52;;;;;;;0.88;0.40;;;;;;;16.81;60.43;101237.84;6280742;22;20022;-71
2021/06/08 07:38:36;;;;;;;0.35;0.35;;;;;;;16.99;60.52;101232.75;6317293;22;20007;-72
2021/06/08 07:41:10;;;;;;;0.30;0.30;;;;;;;17.22;59.90;101245.78;6315366;22;19999;-72
2021/06/08 07:43:42;;;;;;;0.30;0.30;;;;;;;17.36;59.34;101237.66;6281338;22;20003;-72
2021/06/08 07:46:15;;;;;;;0.60;0.40;;;;;;;17.47;58.80;101241.13;6311217;22;20003;-71
2021/06/08 07:48:44;;;;;;;1.23;0.47;;;;;;;17.45;58.30;101241.41;6306526;22;20080;-72
2021/06/08 07:51:11;;;;;;;2.03;0.70;;;;;;;17.45;57.22;101237.84;6280640;22;20453;-72
2021/06/08 07:53:37;;;;;;;1.05;0.60;;;;;;;17.50;57.76;101236.97;6299643;22;20086;-72
2021/06/08 07:56:04;;;;;;;1.58;0.40;;;;;;;17.60;57.22;101234.06;6301013;22;20536;-72
2021/06/08 07:58:29;;;;;;;0.55;0.38;;;;;;;17.66;56.75;101229.31;6278584;22;20003;-72
2021/06/08 08:00:57;;;;;;;1.13;0.45;;;;;;;17.66;55.97;101229.31;6246694;22;20015;-73
2021/06/08 08:06:02;;;;;;;0.60;0.60;;;;;;;17.73;56.11;101230.59;6280290;22;20059;-73
2021/06/08 08:08:28;;;;;;;1.50;0.68;;;;;;;17.81;55.60;101226.34;6276182;22;20007;-72
2021/06/08 08:10:54;;;;;;;0.60;0.60;;;;;;;17.84;55.68;101234.06;6302554;22;19999;-72
2021/06/08 08:13:23;;;;;;;1.63;0.80;;;;;;;17.87;55.25;101225.19;6285433;22;20011;-71
2021/06/08 08:15:53;;;;;;;0.43;0.43;;;;;;;18.04;55.51;101229.44;6319073;22;20124;-72
2021/06/08 08:18:20;;;;;;;1.52;0.65;;;;;;;18.12;53.79;101225.97;6260861;22;20007;-71
2021/06/08 08:20:55;;;;;;;1.52;0.75;;;;;;;18.16;53.38;101227.03;6287130;22;20033;-72
2021/06/08 08:23:27;;;;;;;5.15;0.70;;;;;;;18.22;53.76;101217.53;6319807;22;19999;-73
2021/06/08 08:25:57;;;;;;;0.40;0.35;;;;;;;18.41;54.01;101233.34;6312788;22;20003;-73
2021/06/08 08:28:25;;;;;;;0.65;0.43;;;;;;;18.50;53.27;101231.56;6312408;22;20068;-74
2021/06/08 08:30:51;;;;;;;2.55;0.57;;;;;;;18.60;53.87;101228.63;6307988;22;20007;-73
2021/06/08 08:33:17;;;;;;;0.63;0.35;;;;;;;18.77;53.08;101224.47;6280921;22;19999;-72
2021/06/08 08:35:42;;;;;;;0.20;0.20;;;;;;;18.97;54.06;101224.16;6306785;22;20017;-73
2021/06/08 08:38:08;;;;;;;3.72;0.43;;;;;;;19.26;53.56;101219.50;6311600;22;19999;-73
2021/06/08 08:40:34;;;;;;;3.67;0.70;;;;;;;19.49;52.14;101234.31;6307864;22;20009;-71
2021/06/08 08:43:02;;;;;;;0.98;0.68;;;;;;;19.47;50.80;101236.59;6283211;22;20011;-74
2021/06/08 08:45:34;;;;;;;0.98;0.40;;;;;;;19.44;51.31;101239.97;6307446;22;20007;-73
2021/06/08 08:47:59;;;;;;;1.17;0.60;;;;;;;19.44;51.86;101239.97;6309302;22;19999;-74
2021/06/08 08:50:26;;;;;;;0.50;0.47;;;;;;;19.43;52.06;101238.31;6305128;22;20083;-73
2021/06/08 08:52:56;;;;;;;0.30;0.30;;;;;;;19.62;51.86;101229.91;6309751;22;20010;-73
2021/06/08 08:55:30;;;;;;;0.65;0.35;;;;;;;19.82;50.68;101229.53;6309586;22;20003;-73
2021/06/08 08:57:57;;;;;;;0.25;0.25;;;;;;;19.78;50.55;101227.66;6309665;22;19999;-73
2021/06/08 09:00:25;;;;;;;0.82;0.40;;;;;;;19.85;50.74;101230.88;6272991;22;20337;-72
2021/06/08 09:02:55;;;;;;;0.68;0.40;;;;;;;19.98;50.88;101230.03;6310881;22;20030;-73
2021/06/08 09:05:21;;;;;;;0.47;0.38;;;;;;;19.98;50.50;101235.59;6311212;22;20078;-72
2021/06/08 09:07:48;;;;;;;0.50;0.50;;;;;;;19.96;50.08;101229.53;6301671;22;19999;-72
2021/06/08 09:10:13;;;;;;;0.50;0.32;;;;;;;19.92;49.50;101231.28;6310503;22;20007;-73
2021/06/08 09:12:40;;;;;;;0.65;0.40;;;;;;;19.82;49.33;101237.03;6283330;22;19999;-71
2021/06/08 09:15:07;;;;;;;0.28;0.28;;;;;;;19.88;50.07;101224.69;6303949;22;20023;-73
2021/06/08 09:17:34;;;;;;;0.22;0.13;;;;;;;20.10;49.58;101225.91;6282553;22;20007;-74
2021/06/08 09:20:03;;;;;;;2.25;0.32;;;;;;;20.26;48.64;101223.63;6281263;22;20034;-73
2021/06/08 09:22:49;;;;;;;2.65;0.40;;;;;;;20.36;48.74;101229.75;6282563;22;20417;-73
2021/06/08 09:25:38;;;;;;;0.47;0.30;;;;;;;20.43;47.65;101228.50;6302509;22;20022;-72
2021/06/08 09:28:12;;;;;;;0.20;0.20;;;;;;;20.42;47.92;101224.91;6307541;22;20303;-72
2021/06/08 09:30:38;;;;;;;0.53;0.13;;;;;;;20.43;47.39;101228.50;6309243;22;20051;-73
2021/06/08 09:33:29;;;;;;;0.20;0.20;;;;;;;20.51;47.16;101230.53;6304871;22;20440;-72
2021/06/08 09:36:07;;;;;;;0.80;0.20;;;;;;;20.52;47.25;101221.06;6300959;22;20042;-72
2021/06/08 09:38:59;;;;;;;0.20;0.10;;;;;;;20.77;47.36;101213.28;6303949;22;20361;-71
2021/06/08 09:41:41;;;;;;;0.50;0.50;;;;;;;20.78;46.02;101223.25;6306225;22;20007;-72
2021/06/08 09:44:15;;;;;;;0.63;0.30;;;;;;;20.94;46.27;101221.75;6302811;22;20139;-72
2021/06/08 09:46:52;;;;;;;0.43;0.30;;;;;;;21.20;46.51;101223.84;6278286;22;20310;-73
2021/06/08 09:49:20;;;;;;;0.20;0.20;;;;;;;21.29;46.17;101221.94;6274894;22;20007;-71
2021/06/08 09:51:45;;;;;;;0.43;0.30;;;;;;;21.49;46.17;101219.72;6304464;22;19998;-73
2021/06/08 09:54:32;;;;;;;0.50;0.50;;;;;;;21.85;45.30;101227.09;6303252;22;20307;-73
2021/06/08 09:57:27;;;;;;;0.47;0.30;;;;;;;21.95;44.82;101221.22;6306615;22;20430;-72
2021/06/08 10:00:00;;;;;;;0.60;0.20;;;;;;;21.77;44.01;101212.00;6304021;22;20041;-76
2021/06/08 10:02:45;;;;;;;2.55;0.30;;;;;;;21.73;44.79;101214.63;6303782;22;20014;-72
2021/06/08 10:05:30;;;;;;;1.38;0.70;;;;;;;21.79;44.03;101201.38;6304685;22;20003;-73
2021/06/08 10:07:59;;;;;;;0.50;0.30;;;;;;;21.84;43.71;101214.31;6279517;22;20339;-73
2021/06/08 10:10:49;;;;;;;0.47;0.47;;;;;;;21.97;43.62;101214.16;6303480;22;20417;-71
2021/06/08 10:13:20;;;;;;;0.45;0.40;;;;;;;22.09;43.54;101213.56;6278446;22;20041;-73
2021/06/08 10:15:55;;;;;;;0.17;0.17;;;;;;;22.53;44.07;101210.00;6296638;22;20060;-72
2021/06/08 10:18:21;;;;;;;0.40;0.30;;;;;;;22.94;43.29;101208.63;6279008;22;19999;-73
2021/06/08 10:20:49;;;;;;;1.48;0.40;;;;;;;23.36;42.52;101228.41;6303703;22;19999;-73
2021/06/08 10:23:17;;;;;;;1.58;0.70;;;;;;;23.24;40.79;101209.56;6304320;22;20326;-73
2021/06/08 10:25:43;;;;;;;0.70;0.40;;;;;;;23.09;41.77;101208.13;6276295;22;20015;-73
2021/06/08 10:28:10;;;;;;;1.60;0.68;;;;;;;23.31;42.19;101209.06;6279829;22;20076;-73
2021/06/08 10:30:37;;;;;;;0.95;0.75;;;;;;;23.42;41.40;101204.75;6281681;22;20018;-72
2021/06/08 10:33:05;;;;;;;0.60;0.60;;;;;;;23.47;41.20;101201.78;6305599;22;20008;-73
2021/06/08 10:35:30;;;;;;;0.50;0.50;;;;;;;23.53;41.28;101211.59;6307548;22;20056;-73
2021/06/08 10:37:56;;;;;;;0.85;0.55;;;;;;;23.73;41.92;101216.75;6307812;22;20007;-73
2021/06/08 10:40:21;;;;;;;0.85;0.60;;;;;;;24.31;42.53;101205.88;6254768;22;20011;-72
2021/06/08 10:42:47;;;;;;;0.80;0.45;;;;;;;24.74;41.41;101213.13;6306779;22;20377;-70
2021/06/08 10:45:13;;;;;;;3.00;1.02;;;;;;;25.12;39.95;101205.66;6300640;22;20007;-73
2021/06/08 10:47:44;;;;;;;0.82;0.63;;;;;;;25.41;39.74;101213.09;6276170;22;20497;-72
2021/06/08 10:50:45;;;;;;;0.88;0.85;;;;;;;25.94;38.52;101222.41;6278772;22;20100;-71
2021/06/08 10:53:36;;;;;;;0.60;0.60;;;;;;;26.23;37.63;101206.50;6256194;22;20038;-72
2021/06/08 10:56:17;;;;;;;0.50;0.50;;;;;;;26.59;37.71;101226.34;6306319;22;20026;-72
2021/06/08 10:58:42;;;;;;;0.30;0.30;;;;;;;27.19;36.46;101218.03;6283595;22;20008;-71
2021/06/08 11:01:34;;;;;;;0.47;0.43;;;;;;;28.15;35.86;101218.81;6315917;22;20479;-73
2021/06/08 11:04:02;;;;;;;1.38;0.70;;;;;;;28.28;33.73;101219.47;6314189;22;20003;-73
2021/06/08 11:06:36;;;;;;;0.68;0.68;;;;;;;28.01;33.45;101222.09;6314289;22;20011;-73
2021/06/08 11:09:13;;;;;;;1.33;0.70;;;;;;;27.52;34.21;101211.25;6303413;22;20307;-73
2021/06/08 11:11:58;;;;;;;0.55;0.55;;;;;;;27.40;34.62;101219.78;6282216;22;20007;-71
2021/06/08 11:14:57;;;;;;;0.43;0.40;;;;;;;27.59;33.97;101217.06;6303210;22;20082;-79
2021/06/08 11:17:37;;;;;;;0.60;0.60;;;;;;;27.44;34.54;101220.69;6278757;22;20075;-73
2021/06/08 11:20:16;;;;;;;0.55;0.40;;;;;;;27.49;34.28;101218.41;6304425;22;20023;-73
2021/06/08 11:22:42;;;;;;;0.60;0.60;;;;;;;27.61;34.24;101211.91;6307711;22;20008;-74
2021/06/08 11:25:29;;;;;;;0.60;0.60;;;;;;;27.60;33.92;101210.28;6283732;22;20335;-75
2021/06/08 11:28:07;;;;;;;1.67;0.80;;;;;;;27.07;33.78;101212.47;6312215;22;19998;-74
2021/06/08 11:30:53;;;;;;;0.57;0.57;;;;;;;27.46;35.12;101207.91;6282149;22;20037;-74
2021/06/08 11:33:35;;;;;;;1.17;0.63;;;;;;;27.75;33.49;101207.81;6309963;22;20049;-74
2021/06/08 11:36:23;;;;;;;4.68;1.67;;;;;;;28.59;34.69;101205.63;6308048;22;20090;-75
2021/06/08 11:38:49;;;;;;;0.70;0.70;;;;;;;29.80;32.35;101211.03;6307973;22;20062;-75